sensor_id;sensor_type;location;lat;lon;timestamp;pressure;altitude;pressure_sealevel;temperature
13497;BMP180;6820;49.374;8.452;2023-05-18T00:01:06;101329.00;;;18.04
13497;BMP180;6820;49.374;8.452;2023-05-18T00:05:08;101325.78;;;18.08
13497;BMP180;6820;49.374;8.452;2023-05-18T00:09:10;101323.06;;;18.05
13497;BMP180;6820;49.374;8.452;2023-05-18T00:13:12;101311.28;;;17.91
13497;BMP180;6820;49.374;8.452;2023-05-18T00:17:14;101316.84;;;17.83
13497;BMP180;6820;49.374;8.452;2023-05-18T00:21:16;101317.38;;;17.76
13497;BMP180;6820;49.374;8.452;2023-05-18T00:25:18;101311.06;;;17.69
13497;BMP180;6820;49.374;8.452;2023-05-18T00:29:20;101310.41;;;17.73
13497;BMP180;6820;49.374;8.452;2023-05-18T00:33:21;101313.84;;;17.74
13497;BMP180;6820;49.374;8.452;2023-05-18T00:37:23;101311.22;;;17.72
13497;BMP180;6820;49.374;8.452;2023-05-18T00:41:26;101305.59;;;17.62
13497;BMP180;6820;49.374;8.452;2023-05-18T00:45:28;101314.53;;;17.53
13497;BMP180;6820;49.374;8.452;2023-05-18T00:49:30;101314.28;;;17.48
13497;BMP180;6820;49.374;8.452;2023-05-18T00:53:32;101309.84;;;17.44
13497;BMP180;6820;49.374;8.452;2023-05-18T00:57:34;101310.56;;;17.42
13497;BMP180;6820;49.374;8.452;2023-05-18T01:01:37;101318.03;;;17.38
13497;BMP180;6820;49.374;8.452;2023-05-18T01:05:44;101316.28;;;17.37
13497;BMP180;6820;49.374;8.452;2023-05-18T01:09:45;101312.03;;;17.37
13497;BMP180;6820;49.374;8.452;2023-05-18T01:13:59;101311.66;;;17.30
13497;BMP180;6820;49.374;8.452;2023-05-18T01:22:37;101307.06;;;17.23
13497;BMP180;6820;49.374;8.452;2023-05-18T01:26:43;101310.97;;;17.16
13497;BMP180;6820;49.374;8.452;2023-05-18T01:30:47;101309.00;;;17.11
13497;BMP180;6820;49.374;8.452;2023-05-18T01:34:49;101316.28;;;17.04
13497;BMP180;6820;49.374;8.452;2023-05-18T01:38:51;101301.41;;;16.97
13497;BMP180;6820;49.374;8.452;2023-05-18T01:42:55;101302.72;;;16.89
13497;BMP180;6820;49.374;8.452;2023-05-18T01:47:07;101308.56;;;16.86
13497;BMP180;6820;49.374;8.452;2023-05-18T01:51:12;101306.09;;;16.88
13497;BMP180;6820;49.374;8.452;2023-05-18T01:55:17;101307.19;;;16.93
13497;BMP180;6820;49.374;8.452;2023-05-18T01:59:19;101313.63;;;16.85
13497;BMP180;6820;49.374;8.452;2023-05-18T02:03:22;101309.84;;;16.78
13497;BMP180;6820;49.374;8.452;2023-05-18T02:07:24;101309.56;;;16.73
13497;BMP180;6820;49.374;8.452;2023-05-18T02:11:26;101304.28;;;16.70
13497;BMP180;6820;49.374;8.452;2023-05-18T02:15:28;101308.53;;;16.69
13497;BMP180;6820;49.374;8.452;2023-05-18T02:19:30;101297.41;;;16.69
13497;BMP180;6820;49.374;8.452;2023-05-18T02:23:32;101297.41;;;16.69
13497;BMP180;6820;49.374;8.452;2023-05-18T02:27:34;101304.28;;;16.54
13497;BMP180;6820;49.374;8.452;2023-05-18T02:31:37;101300.56;;;16.32
13497;BMP180;6820;49.374;8.452;2023-05-18T02:35:39;101293.91;;;16.19
13497;BMP180;6820;49.374;8.452;2023-05-18T02:39:41;101292.53;;;16.10
13497;BMP180;6820;49.374;8.452;2023-05-18T02:43:43;101298.75;;;15.99
13497;BMP180;6820;49.374;8.452;2023-05-18T02:47:45;101296.41;;;15.88
13497;BMP180;6820;49.374;8.452;2023-05-18T02:51:46;101306.63;;;15.88
13497;BMP180;6820;49.374;8.452;2023-05-18T02:55:53;101303.84;;;15.84
13497;BMP180;6820;49.374;8.452;2023-05-18T03:00:03;101301.63;;;15.75
13497;BMP180;6820;49.374;8.452;2023-05-18T03:04:12;101304.03;;;15.72
13497;BMP180;6820;49.374;8.452;2023-05-18T03:08:20;101304.84;;;15.71
13497;BMP180;6820;49.374;8.452;2023-05-18T03:12:27;101301.09;;;15.65
13497;BMP180;6820;49.374;8.452;2023-05-18T03:16:29;101301.09;;;15.65
13497;BMP180;6820;49.374;8.452;2023-05-18T03:20:31;101303.63;;;15.65
13497;BMP180;6820;49.374;8.452;2023-05-18T03:24:33;101297.88;;;15.69
13497;BMP180;6820;49.374;8.452;2023-05-18T03:28:45;101305.66;;;15.70
13497;BMP180;6820;49.374;8.452;2023-05-18T03:32:47;101305.81;;;15.59
13497;BMP180;6820;49.374;8.452;2023-05-18T03:36:49;101306.63;;;15.58
13497;BMP180;6820;49.374;8.452;2023-05-18T03:40:52;101323.66;;;15.57
13497;BMP180;6820;49.374;8.452;2023-05-18T03:44:53;101327.72;;;15.40
13497;BMP180;6820;49.374;8.452;2023-05-18T03:48:55;101330.38;;;15.27
13497;BMP180;6820;49.374;8.452;2023-05-18T03:53:05;101333.28;;;15.33
13497;BMP180;6820;49.374;8.452;2023-05-18T03:57:06;101338.13;;;15.28
13497;BMP180;6820;49.374;8.452;2023-05-18T04:01:08;101333.47;;;15.22
13497;BMP180;6820;49.374;8.452;2023-05-18T04:05:10;101338.31;;;15.17
13497;BMP180;6820;49.374;8.452;2023-05-18T04:09:12;101341.94;;;15.21
13497;BMP180;6820;49.374;8.452;2023-05-18T04:13:17;101343.50;;;15.19
13497;BMP180;6820;49.374;8.452;2023-05-18T04:17:19;101337.53;;;15.18
13497;BMP180;6820;49.374;8.452;2023-05-18T04:21:26;101343.59;;;15.20
13497;BMP180;6820;49.374;8.452;2023-05-18T04:25:27;101345.53;;;15.24
13497;BMP180;6820;49.374;8.452;2023-05-18T04:29:30;101349.94;;;15.26
13497;BMP180;6820;49.374;8.452;2023-05-18T04:33:32;101347.53;;;15.29
13497;BMP180;6820;49.374;8.452;2023-05-18T04:37:34;101356.19;;;15.31
13497;BMP180;6820;49.374;8.452;2023-05-18T04:41:37;101354.16;;;15.26
13497;BMP180;6820;49.374;8.452;2023-05-18T04:45:38;101364.09;;;15.22
13497;BMP180;6820;49.374;8.452;2023-05-18T04:49:41;101357.94;;;15.18
13497;BMP180;6820;49.374;8.452;2023-05-18T04:53:44;101363.59;;;15.13
13497;BMP180;6820;49.374;8.452;2023-05-18T04:57:46;101352.50;;;15.12
13497;BMP180;6820;49.374;8.452;2023-05-18T05:01:48;101362.59;;;15.11
13497;BMP180;6820;49.374;8.452;2023-05-18T05:05:50;101362.78;;;15.14
13497;BMP180;6820;49.374;8.452;2023-05-18T05:09:51;101370.25;;;15.11
13497;BMP180;6820;49.374;8.452;2023-05-18T05:13:53;101360.16;;;15.12
13497;BMP180;6820;49.374;8.452;2023-05-18T05:17:56;101359.63;;;15.18
13497;BMP180;6820;49.374;8.452;2023-05-18T05:21:58;101369.22;;;15.22
13497;BMP180;6820;49.374;8.452;2023-05-18T05:26:00;101365.00;;;15.22
13497;BMP180;6820;49.374;8.452;2023-05-18T05:30:03;101363.84;;;15.31
13497;BMP180;6820;49.374;8.452;2023-05-18T05:34:08;101370.38;;;15.41
13497;BMP180;6820;49.374;8.452;2023-05-18T05:38:12;101364.09;;;15.50
13497;BMP180;6820;49.374;8.452;2023-05-18T05:42:14;101364.59;;;15.59
13497;BMP180;6820;49.374;8.452;2023-05-18T05:46:16;101368.63;;;15.70
13497;BMP180;6820;49.374;8.452;2023-05-18T05:50:18;101365.91;;;15.81
13497;BMP180;6820;49.374;8.452;2023-05-18T05:54:22;101363.22;;;15.94
13497;BMP180;6820;49.374;8.452;2023-05-18T05:58:24;101369.97;;;16.08
13497;BMP180;6820;49.374;8.452;2023-05-18T06:02:31;101367.38;;;16.22
13497;BMP180;6820;49.374;8.452;2023-05-18T06:06:38;101361.25;;;16.34
13497;BMP180;6820;49.374;8.452;2023-05-18T06:10:40;101363.41;;;16.43
13497;BMP180;6820;49.374;8.452;2023-05-18T06:14:43;101365.88;;;16.57
13497;BMP180;6820;49.374;8.452;2023-05-18T06:18:45;101359.56;;;16.66
13497;BMP180;6820;49.374;8.452;2023-05-18T06:22:47;101354.34;;;16.80
13497;BMP180;6820;49.374;8.452;2023-05-18T06:27:12;101364.41;;;16.93
13497;BMP180;6820;49.374;8.452;2023-05-18T06:31:21;101367.72;;;17.08
13497;BMP180;6820;49.374;8.452;2023-05-18T06:35:35;101364.59;;;17.29
13497;BMP180;6820;49.374;8.452;2023-05-18T06:39:37;101377.50;;;17.48
13497;BMP180;6820;49.374;8.452;2023-05-18T06:43:39;101375.53;;;17.60
13497;BMP180;6820;49.374;8.452;2023-05-18T06:47:52;101366.09;;;17.76
13497;BMP180;6820;49.374;8.452;2023-05-18T06:51:54;101373.69;;;17.92
13497;BMP180;6820;49.374;8.452;2023-05-18T06:55:56;101371.13;;;18.09
13497;BMP180;6820;49.374;8.452;2023-05-18T06:59:58;101358.88;;;18.21
13497;BMP180;6820;49.374;8.452;2023-05-18T07:03:59;101364.91;;;18.40
13497;BMP180;6820;49.374;8.452;2023-05-18T07:08:01;101359.06;;;18.61
13497;BMP180;6820;49.374;8.452;2023-05-18T07:12:05;101354.69;;;18.79
13497;BMP180;6820;49.374;8.452;2023-05-18T07:16:07;101353.78;;;18.95
13497;BMP180;6820;49.374;8.452;2023-05-18T07:20:09;101344.84;;;19.06
13497;BMP180;6820;49.374;8.452;2023-05-18T07:24:11;101355.41;;;19.14
13497;BMP180;6820;49.374;8.452;2023-05-18T07:28:12;101345.03;;;19.31
13497;BMP180;6820;49.374;8.452;2023-05-18T07:32:14;101331.91;;;19.45
13497;BMP180;6820;49.374;8.452;2023-05-18T07:36:16;101335.00;;;19.57
13497;BMP180;6820;49.374;8.452;2023-05-18T07:40:17;101338.09;;;19.70
13497;BMP180;6820;49.374;8.452;2023-05-18T07:44:19;101335.03;;;19.79
13497;BMP180;6820;49.374;8.452;2023-05-18T07:48:21;101334.81;;;19.94
13497;BMP180;6820;49.374;8.452;2023-05-18T07:52:22;101338.56;;;20.02
13497;BMP180;6820;49.374;8.452;2023-05-18T07:56:24;101342.66;;;20.19
13497;BMP180;6820;49.374;8.452;2023-05-18T08:00:26;101338.78;;;20.30
13497;BMP180;6820;49.374;8.452;2023-05-18T08:04:28;101336.53;;;20.39
13497;BMP180;6820;49.374;8.452;2023-05-18T08:08:30;101332.59;;;20.48
13497;BMP180;6820;49.374;8.452;2023-05-18T08:12:31;101326.94;;;20.56
13497;BMP180;6820;49.374;8.452;2023-05-18T08:16:33;101323.78;;;20.63
13497;BMP180;6820;49.374;8.452;2023-05-18T08:20:37;101322.59;;;20.78
13497;BMP180;6820;49.374;8.452;2023-05-18T08:24:39;101321.53;;;20.97
13497;BMP180;6820;49.374;8.452;2023-05-18T08:28:41;101316.13;;;21.14
13497;BMP180;6820;49.374;8.452;2023-05-18T08:32:43;101304.22;;;21.19
13497;BMP180;6820;49.374;8.452;2023-05-18T08:36:45;101308.69;;;21.23
13497;BMP180;6820;49.374;8.452;2023-05-18T08:40:53;101307.44;;;21.35
13497;BMP180;6820;49.374;8.452;2023-05-18T08:45:21;101300.41;;;21.57
13497;BMP180;6820;49.374;8.452;2023-05-18T08:49:25;101301.88;;;21.77
13497;BMP180;6820;49.374;8.452;2023-05-18T08:53:28;101298.00;;;21.91
13497;BMP180;6820;49.374;8.452;2023-05-18T08:57:31;101300.34;;;22.09
13497;BMP180;6820;49.374;8.452;2023-05-18T09:01:35;101293.59;;;22.43
13497;BMP180;6820;49.374;8.452;2023-05-18T09:05:39;101286.56;;;22.99
13497;BMP180;6820;49.374;8.452;2023-05-18T09:09:42;101269.19;;;23.27
13497;BMP180;6820;49.374;8.452;2023-05-18T09:13:45;101263.63;;;23.47
13497;BMP180;6820;49.374;8.452;2023-05-18T09:17:47;101271.63;;;23.92
13497;BMP180;6820;49.374;8.452;2023-05-18T09:21:49;101272.34;;;24.25
13497;BMP180;6820;49.374;8.452;2023-05-18T09:25:51;101278.03;;;24.48
13497;BMP180;6820;49.374;8.452;2023-05-18T09:29:54;101266.75;;;24.46
13497;BMP180;6820;49.374;8.452;2023-05-18T09:33:57;101268.56;;;24.50
13497;BMP180;6820;49.374;8.452;2023-05-18T09:38:02;101272.63;;;24.38
13497;BMP180;6820;49.374;8.452;2023-05-18T09:42:04;101257.88;;;24.36
13497;BMP180;6820;49.374;8.452;2023-05-18T09:46:07;101253.66;;;24.41
13497;BMP180;6820;49.374;8.452;2023-05-18T09:50:09;101249.59;;;24.53
13497;BMP180;6820;49.374;8.452;2023-05-18T09:54:11;101255.81;;;24.62
13497;BMP180;6820;49.374;8.452;2023-05-18T09:58:13;101247.78;;;24.47
13497;BMP180;6820;49.374;8.452;2023-05-18T10:02:17;101256.03;;;24.29
13497;BMP180;6820;49.374;8.452;2023-05-18T10:06:25;101250.28;;;24.04
13497;BMP180;6820;49.374;8.452;2023-05-18T10:10:27;101249.50;;;24.08
13497;BMP180;6820;49.374;8.452;2023-05-18T10:14:31;101246.31;;;24.19
13497;BMP180;6820;49.374;8.452;2023-05-18T10:18:37;101254.19;;;24.23
13497;BMP180;6820;49.374;8.452;2023-05-18T10:22:39;101244.09;;;24.37
13497;BMP180;6820;49.374;8.452;2023-05-18T10:26:42;101239.03;;;24.43
13497;BMP180;6820;49.374;8.452;2023-05-18T10:30:45;101236.34;;;24.38
13497;BMP180;6820;49.374;8.452;2023-05-18T10:34:47;101235.63;;;24.45
13497;BMP180;6820;49.374;8.452;2023-05-18T10:38:50;101230.59;;;24.52
13497;BMP180;6820;49.374;8.452;2023-05-18T10:42:56;101228.94;;;24.56
13497;BMP180;6820;49.374;8.452;2023-05-18T10:46:59;101234.25;;;24.63
13497;BMP180;6820;49.374;8.452;2023-05-18T10:51:01;101226.03;;;24.85
13497;BMP180;6820;49.374;8.452;2023-05-18T10:55:07;101208.06;;;24.97
13497;BMP180;6820;49.374;8.452;2023-05-18T10:59:10;101214.88;;;24.90
13497;BMP180;6820;49.374;8.452;2023-05-18T11:03:13;101201.09;;;24.93
13497;BMP180;6820;49.374;8.452;2023-05-18T11:07:15;101209.06;;;25.05
13497;BMP180;6820;49.374;8.452;2023-05-18T11:11:21;101200.59;;;25.14
13497;BMP180;6820;49.374;8.452;2023-05-18T11:28:24;101186.13;;;25.30
13497;BMP180;6820;49.374;8.452;2023-05-18T11:32:27;101181.16;;;25.44
13497;BMP180;6820;49.374;8.452;2023-05-18T11:36:43;101183.97;;;25.58
13497;BMP180;6820;49.374;8.452;2023-05-18T11:40:49;101173.03;;;25.82
13497;BMP180;6820;49.374;8.452;2023-05-18T11:44:54;101172.09;;;25.76
13497;BMP180;6820;49.374;8.452;2023-05-18T11:49:01;101170.38;;;25.76
13497;BMP180;6820;49.374;8.452;2023-05-18T11:53:03;101167.13;;;25.95
13497;BMP180;6820;49.374;8.452;2023-05-18T11:57:06;101179.28;;;25.98
13497;BMP180;6820;49.374;8.452;2023-05-18T12:01:08;101174.56;;;26.34
13497;BMP180;6820;49.374;8.452;2023-05-18T12:05:13;101160.31;;;26.84
13497;BMP180;6820;49.374;8.452;2023-05-18T12:09:14;101156.22;;;27.15
13497;BMP180;6820;49.374;8.452;2023-05-18T12:13:17;101165.84;;;27.29
13497;BMP180;6820;49.374;8.452;2023-05-18T12:17:18;101161.50;;;27.28
13497;BMP180;6820;49.374;8.452;2023-05-18T12:21:21;101159.69;;;27.16
13497;BMP180;6820;49.374;8.452;2023-05-18T12:25:25;101165.63;;;26.98
13497;BMP180;6820;49.374;8.452;2023-05-18T12:29:27;101159.81;;;27.33
13497;BMP180;6820;49.374;8.452;2023-05-18T12:33:28;101150.44;;;27.59
13497;BMP180;6820;49.374;8.452;2023-05-18T12:37:30;101147.03;;;27.70
13497;BMP180;6820;49.374;8.452;2023-05-18T12:41:45;101150.34;;;27.38
13497;BMP180;6820;49.374;8.452;2023-05-18T12:45:47;101139.78;;;27.19
13497;BMP180;6820;49.374;8.452;2023-05-18T12:49:49;101134.50;;;27.13
13497;BMP180;6820;49.374;8.452;2023-05-18T12:53:51;101127.78;;;27.45
13497;BMP180;6820;49.374;8.452;2023-05-18T12:58:11;101115.06;;;28.13
13497;BMP180;6820;49.374;8.452;2023-05-18T13:02:26;101114.22;;;28.40
13497;BMP180;6820;49.374;8.452;2023-05-18T13:06:28;101109.91;;;28.61
13497;BMP180;6820;49.374;8.452;2023-05-18T13:10:30;101108.19;;;28.53
13497;BMP180;6820;49.374;8.452;2023-05-18T13:14:37;101115.91;;;28.09
13497;BMP180;6820;49.374;8.452;2023-05-18T13:18:44;101113.28;;;28.06
13497;BMP180;6820;49.374;8.452;2023-05-18T13:22:49;101099.41;;;28.21
13497;BMP180;6820;49.374;8.452;2023-05-18T13:26:50;101098.56;;;28.31
13497;BMP180;6820;49.374;8.452;2023-05-18T13:30:52;101100.34;;;28.56
13497;BMP180;6820;49.374;8.452;2023-05-18T13:34:54;101086.44;;;28.63
13497;BMP180;6820;49.374;8.452;2023-05-18T13:38:55;101093.38;;;28.56
13497;BMP180;6820;49.374;8.452;2023-05-18T13:42:58;101084.69;;;28.77
13497;BMP180;6820;49.374;8.452;2023-05-18T13:46:59;101069.81;;;29.23
13497;BMP180;6820;49.374;8.452;2023-05-18T13:51:01;101082.81;;;29.43
13497;BMP180;6820;49.374;8.452;2023-05-18T13:55:04;101080.06;;;29.74
13497;BMP180;6820;49.374;8.452;2023-05-18T13:59:06;101060.94;;;29.73
13497;BMP180;6820;49.374;8.452;2023-05-18T14:03:08;101061.59;;;30.07
13497;BMP180;6820;49.374;8.452;2023-05-18T14:07:10;101067.66;;;30.18
13497;BMP180;6820;49.374;8.452;2023-05-18T14:11:12;101061.41;;;30.36
13497;BMP180;6820;49.374;8.452;2023-05-18T14:15:14;101052.63;;;30.43
13497;BMP180;6820;49.374;8.452;2023-05-18T14:19:16;101054.16;;;30.65
13497;BMP180;6820;49.374;8.452;2023-05-18T14:23:17;101047.81;;;30.91
13497;BMP180;6820;49.374;8.452;2023-05-18T14:27:19;101035.25;;;31.26
13497;BMP180;6820;49.374;8.452;2023-05-18T14:31:21;101025.44;;;31.39
13497;BMP180;6820;49.374;8.452;2023-05-18T14:35:23;101041.38;;;31.22
13497;BMP180;6820;49.374;8.452;2023-05-18T14:39:25;101046.50;;;31.32
13497;BMP180;6820;49.374;8.452;2023-05-18T14:43:26;101030.72;;;31.38
13497;BMP180;6820;49.374;8.452;2023-05-18T14:47:28;101020.22;;;31.41
13497;BMP180;6820;49.374;8.452;2023-05-18T14:51:30;101018.94;;;31.68
13497;BMP180;6820;49.374;8.452;2023-05-18T14:55:31;101015.09;;;31.94
13497;BMP180;6820;49.374;8.452;2023-05-18T14:59:33;101012.56;;;31.89
13497;BMP180;6820;49.374;8.452;2023-05-18T15:03:35;101023.91;;;31.24
13497;BMP180;6820;49.374;8.452;2023-05-18T15:07:37;101019.69;;;31.09
13497;BMP180;6820;49.374;8.452;2023-05-18T15:11:38;101020.59;;;31.07
13497;BMP180;6820;49.374;8.452;2023-05-18T15:15:40;101016.59;;;30.76
13497;BMP180;6820;49.374;8.452;2023-05-18T15:19:42;101011.88;;;31.05
13497;BMP180;6820;49.374;8.452;2023-05-18T15:23:44;101002.81;;;31.35
13497;BMP180;6820;49.374;8.452;2023-05-18T15:27:46;100999.22;;;31.42
13497;BMP180;6820;49.374;8.452;2023-05-18T15:31:49;100996.81;;;31.26
13497;BMP180;6820;49.374;8.452;2023-05-18T15:35:52;101001.59;;;30.90
13497;BMP180;6820;49.374;8.452;2023-05-18T15:39:53;101004.03;;;31.06
13497;BMP180;6820;49.374;8.452;2023-05-18T15:43:55;100996.84;;;30.41
13497;BMP180;6820;49.374;8.452;2023-05-18T15:47:57;101003.41;;;29.78
13497;BMP180;6820;49.374;8.452;2023-05-18T15:51:58;100999.81;;;29.94
13497;BMP180;6820;49.374;8.452;2023-05-18T15:56:00;101002.97;;;30.37
13497;BMP180;6820;49.374;8.452;2023-05-18T16:00:03;100987.78;;;30.75
13497;BMP180;6820;49.374;8.452;2023-05-18T16:04:12;100990.75;;;31.24
13497;BMP180;6820;49.374;8.452;2023-05-18T16:08:13;100991.75;;;31.10
13497;BMP180;6820;49.374;8.452;2023-05-18T16:12:15;100996.00;;;30.35
13497;BMP180;6820;49.374;8.452;2023-05-18T16:16:17;100990.91;;;30.23
13497;BMP180;6820;49.374;8.452;2023-05-18T16:20:19;100997.72;;;30.42
13497;BMP180;6820;49.374;8.452;2023-05-18T16:24:21;100987.94;;;30.59
13497;BMP180;6820;49.374;8.452;2023-05-18T16:28:23;100987.31;;;31.15
13497;BMP180;6820;49.374;8.452;2023-05-18T16:32:25;100988.84;;;31.33
13497;BMP180;6820;49.374;8.452;2023-05-18T16:36:28;101002.53;;;30.83
13497;BMP180;6820;49.374;8.452;2023-05-18T16:40:31;101009.34;;;29.98
13497;BMP180;6820;49.374;8.452;2023-05-18T16:44:33;101001.84;;;29.43
13497;BMP180;6820;49.374;8.452;2023-05-18T16:48:36;101015.91;;;28.89
13497;BMP180;6820;49.374;8.452;2023-05-18T16:52:38;101020.34;;;28.48
13497;BMP180;6820;49.374;8.452;2023-05-18T16:56:40;101022.06;;;28.13
13497;BMP180;6820;49.374;8.452;2023-05-18T17:00:41;101026.44;;;28.10
13497;BMP180;6820;49.374;8.452;2023-05-18T17:04:43;101028.13;;;27.93
13497;BMP180;6820;49.374;8.452;2023-05-18T17:08:50;101023.81;;;28.11
13497;BMP180;6820;49.374;8.452;2023-05-18T17:12:58;101025.53;;;28.49
13497;BMP180;6820;49.374;8.452;2023-05-18T17:17:00;101022.06;;;28.35
13497;BMP180;6820;49.374;8.452;2023-05-18T17:21:02;101029.91;;;28.10
13497;BMP180;6820;49.374;8.452;2023-05-18T17:25:04;101023.78;;;27.93
13497;BMP180;6820;49.374;8.452;2023-05-18T17:29:06;101023.72;;;27.85
13497;BMP180;6820;49.374;8.452;2023-05-18T17:33:07;101025.47;;;27.81
13497;BMP180;6820;49.374;8.452;2023-05-18T17:37:10;101021.09;;;27.77
13497;BMP180;6820;49.374;8.452;2023-05-18T17:41:12;101021.94;;;27.51
13497;BMP180;6820;49.374;8.452;2023-05-18T17:45:13;101021.75;;;27.20
13497;BMP180;6820;49.374;8.452;2023-05-18T17:49:16;101032.91;;;26.93
13497;BMP180;6820;49.374;8.452;2023-05-18T17:53:18;101026.59;;;26.62
13497;BMP180;6820;49.374;8.452;2023-05-18T17:57:21;101027.31;;;26.39
13497;BMP180;6820;49.374;8.452;2023-05-18T18:01:24;101035.06;;;26.35
13497;BMP180;6820;49.374;8.452;2023-05-18T18:05:25;101041.19;;;26.43
13497;BMP180;6820;49.374;8.452;2023-05-18T18:09:27;101042.06;;;26.46
13497;BMP180;6820;49.374;8.452;2023-05-18T18:13:29;101040.34;;;26.48
13497;BMP180;6820;49.374;8.452;2023-05-18T18:17:30;101039.38;;;26.34
13497;BMP180;6820;49.374;8.452;2023-05-18T18:21:32;101043.59;;;26.22
13497;BMP180;6820;49.374;8.452;2023-05-18T18:25:34;101041.66;;;26.02
13497;BMP180;6820;49.374;8.452;2023-05-18T18:29:35;101044.91;;;25.80
13497;BMP180;6820;49.374;8.452;2023-05-18T18:33:37;101056.81;;;25.64
13497;BMP180;6820;49.374;8.452;2023-05-18T18:37:38;101056.59;;;25.47
13497;BMP180;6820;49.374;8.452;2023-05-18T18:41:40;101060.78;;;25.35
13497;BMP180;6820;49.374;8.452;2023-05-18T18:45:42;101067.44;;;25.18
13497;BMP180;6820;49.374;8.452;2023-05-18T18:49:44;101072.44;;;25.04
13497;BMP180;6820;49.374;8.452;2023-05-18T18:53:46;101077.44;;;24.92
13497;BMP180;6820;49.374;8.452;2023-05-18T18:57:47;101075.50;;;24.80
13497;BMP180;6820;49.374;8.452;2023-05-18T19:01:49;101084.81;;;24.67
13497;BMP180;6820;49.374;8.452;2023-05-18T19:05:51;101079.44;;;24.55
13497;BMP180;6820;49.374;8.452;2023-05-18T19:09:52;101084.47;;;24.46
13497;BMP180;6820;49.374;8.452;2023-05-18T19:13:54;101085.13;;;24.35
13497;BMP180;6820;49.374;8.452;2023-05-18T19:17:56;101093.59;;;24.25
13497;BMP180;6820;49.374;8.452;2023-05-18T19:21:58;101092.53;;;24.17
13497;BMP180;6820;49.374;8.452;2023-05-18T19:26:00;101106.25;;;24.10
13497;BMP180;6820;49.374;8.452;2023-05-18T19:30:03;101116.47;;;24.03
13497;BMP180;6820;49.374;8.452;2023-05-18T19:34:05;101107.72;;;23.98
13497;BMP180;6820;49.374;8.452;2023-05-18T19:38:07;101112.75;;;23.90
13497;BMP180;6820;49.374;8.452;2023-05-18T19:42:08;101107.50;;;23.86
13497;BMP180;6820;49.374;8.452;2023-05-18T19:46:10;101112.47;;;23.77
13497;BMP180;6820;49.374;8.452;2023-05-18T19:50:12;101118.41;;;23.70
13497;BMP180;6820;49.374;8.452;2023-05-18T19:54:14;101120.94;;;23.67
13497;BMP180;6820;49.374;8.452;2023-05-18T19:58:16;101128.66;;;23.66
13497;BMP180;6820;49.374;8.452;2023-05-18T20:02:17;101123.41;;;23.63
13497;BMP180;6820;49.374;8.452;2023-05-18T20:06:19;101134.56;;;23.59
13497;BMP180;6820;49.374;8.452;2023-05-18T20:10:21;101124.97;;;23.55
13497;BMP180;6820;49.374;8.452;2023-05-18T20:14:24;101131.81;;;23.52
13497;BMP180;6820;49.374;8.452;2023-05-18T20:18:27;101132.53;;;23.46
13497;BMP180;6820;49.374;8.452;2023-05-18T20:22:29;101131.41;;;23.35
13497;BMP180;6820;49.374;8.452;2023-05-18T20:26:31;101136.38;;;23.26
13497;BMP180;6820;49.374;8.452;2023-05-18T20:30:33;101130.25;;;23.23
13497;BMP180;6820;49.374;8.452;2023-05-18T20:34:35;101137.09;;;23.20
13497;BMP180;6820;49.374;8.452;2023-05-18T20:38:37;101135.19;;;23.13
13497;BMP180;6820;49.374;8.452;2023-05-18T20:42:39;101140.19;;;23.05
13497;BMP180;6820;49.374;8.452;2023-05-18T20:46:41;101145.03;;;22.92
13497;BMP180;6820;49.374;8.452;2023-05-18T20:50:43;101150.06;;;22.86
13497;BMP180;6820;49.374;8.452;2023-05-18T20:54:45;101148.03;;;22.75
13497;BMP180;6820;49.374;8.452;2023-05-18T20:58:47;101142.59;;;22.64
13497;BMP180;6820;49.374;8.452;2023-05-18T21:02:50;101138.28;;;22.63
13497;BMP180;6820;49.374;8.452;2023-05-18T21:06:52;101144.25;;;22.62
13497;BMP180;6820;49.374;8.452;2023-05-18T21:10:54;101151.75;;;22.52
13497;BMP180;6820;49.374;8.452;2023-05-18T21:14:56;101150.78;;;22.47
13497;BMP180;6820;49.374;8.452;2023-05-18T21:18:58;101157.69;;;22.48
13497;BMP180;6820;49.374;8.452;2023-05-18T21:22:59;101154.03;;;22.40
13497;BMP180;6820;49.374;8.452;2023-05-18T21:27:02;101152.16;;;22.35
13497;BMP180;6820;49.374;8.452;2023-05-18T21:31:04;101153.81;;;22.31
13497;BMP180;6820;49.374;8.452;2023-05-18T21:35:06;101151.88;;;22.25
13497;BMP180;6820;49.374;8.452;2023-05-18T21:39:08;101152.53;;;22.16
13497;BMP180;6820;49.374;8.452;2023-05-18T21:43:10;101157.53;;;22.12
13497;BMP180;6820;49.374;8.452;2023-05-18T21:47:12;101154.78;;;22.06
13497;BMP180;6820;49.374;8.452;2023-05-18T21:51:15;101153.75;;;21.99
13497;BMP180;6820;49.374;8.452;2023-05-18T21:55:17;101162.19;;;21.94
13497;BMP180;6820;49.374;8.452;2023-05-18T21:59:18;101155.06;;;21.86
13497;BMP180;6820;49.374;8.452;2023-05-18T22:03:20;101155.78;;;21.80
13497;BMP180;6820;49.374;8.452;2023-05-18T22:07:24;101156.41;;;21.73
13497;BMP180;6820;49.374;8.452;2023-05-18T22:11:26;101163.28;;;21.73
13497;BMP180;6820;49.374;8.452;2023-05-18T22:15:28;101158.94;;;21.72
13497;BMP180;6820;49.374;8.452;2023-05-18T22:19:29;101156.28;;;21.69
13497;BMP180;6820;49.374;8.452;2023-05-18T22:23:31;101163.00;;;21.64
13497;BMP180;6820;49.374;8.452;2023-05-18T22:27:33;101152.53;;;21.58
13497;BMP180;6820;49.374;8.452;2023-05-18T22:31:36;101160.16;;;21.54
13497;BMP180;6820;49.374;8.452;2023-05-18T22:35:38;101153.38;;;21.59
13497;BMP180;6820;49.374;8.452;2023-05-18T22:39:40;101159.53;;;21.62
13497;BMP180;6820;49.374;8.452;2023-05-18T22:43:41;101157.75;;;21.61
13497;BMP180;6820;49.374;8.452;2023-05-18T22:47:43;101159.31;;;21.56
13497;BMP180;6820;49.374;8.452;2023-05-18T22:51:45;101162.59;;;21.49
13497;BMP180;6820;49.374;8.452;2023-05-18T22:55:47;101157.94;;;21.38
13497;BMP180;6820;49.374;8.452;2023-05-18T22:59:48;101163.44;;;21.22
13497;BMP180;6820;49.374;8.452;2023-05-18T23:03:50;101160.44;;;21.10
13497;BMP180;6820;49.374;8.452;2023-05-18T23:07:52;101160.94;;;20.98
13497;BMP180;6820;49.374;8.452;2023-05-18T23:11:53;101161.53;;;20.91
13497;BMP180;6820;49.374;8.452;2023-05-18T23:15:56;101158.63;;;20.80
13497;BMP180;6820;49.374;8.452;2023-05-18T23:20:01;101164.28;;;20.71
13497;BMP180;6820;49.374;8.452;2023-05-18T23:24:09;101158.25;;;20.70
13497;BMP180;6820;49.374;8.452;2023-05-18T23:28:12;101158.13;;;20.66
13497;BMP180;6820;49.374;8.452;2023-05-18T23:32:14;101164.84;;;20.61
13497;BMP180;6820;49.374;8.452;2023-05-18T23:36:19;101160.47;;;20.60